sensor_id;sensor_type;location;lat;lon;timestamp;pressure;altitude;pressure_sealevel;temperature;humidity
47166;BME280;32930;51.112;13.762;2023-08-07T05:09:49;98270.78;;;18.92;88.33
47166;BME280;32930;51.112;13.762;2023-08-07T08:05:22;98455.75;;;20.07;81.44
47166;BME280;32930;51.112;13.762;2023-08-07T08:07:51;98469.38;;;19.95;80.51
47166;BME280;32930;51.112;13.762;2023-08-07T08:25:49;98477.66;;;19.86;79.79
47166;BME280;32930;51.112;13.762;2023-08-07T09:32:48;98529.06;;;20.50;72.51
47166;BME280;32930;51.112;13.762;2023-08-07T09:45:33;98518.78;;;21.29;67.46
47166;BME280;32930;51.112;13.762;2023-08-07T09:50:36;98521.13;;;21.02;69.81
47166;BME280;32930;51.112;13.762;2023-08-07T09:53:02;98521.66;;;20.93;68.86
47166;BME280;32930;51.112;13.762;2023-08-07T09:55:27;98518.47;;;20.71;72.14
47166;BME280;32930;51.112;13.762;2023-08-07T09:57:53;98526.34;;;20.53;73.14
47166;BME280;32930;51.112;13.762;2023-08-07T10:02:53;98526.66;;;20.96;72.11
47166;BME280;32930;51.112;13.762;2023-08-07T10:10:23;98526.81;;;20.77;70.12
47166;BME280;32930;51.112;13.762;2023-08-07T10:20:30;98530.25;;;20.27;71.19
47166;BME280;32930;51.112;13.762;2023-08-07T10:51:34;98546.19;;;21.38;67.88
47166;BME280;32930;51.112;13.762;2023-08-07T10:56:54;98546.19;;;21.38;67.88
47166;BME280;32930;51.112;13.762;2023-08-07T11:41:01;98566.53;;;21.47;74.02
47166;BME280;32930;51.112;13.762;2023-08-07T11:43:30;98573.59;;;21.45;73.87
47166;BME280;32930;51.112;13.762;2023-08-07T12:22:39;98560.22;;;20.53;86.50
47166;BME280;32930;51.112;13.762;2023-08-07T12:27:40;98549.53;;;20.58;89.67
47166;BME280;32930;51.112;13.762;2023-08-07T12:30:06;98560.00;;;20.74;85.38
47166;BME280;32930;51.112;13.762;2023-08-07T12:32:53;98552.00;;;20.61;88.94
47166;BME280;32930;51.112;13.762;2023-08-07T12:40:36;98581.59;;;20.60;82.11
47166;BME280;32930;51.112;13.762;2023-08-07T12:45:59;98567.94;;;20.72;85.30
47166;BME280;32930;51.112;13.762;2023-08-07T12:48:25;98573.91;;;20.74;86.26
47166;BME280;32930;51.112;13.762;2023-08-07T12:50:53;98574.34;;;20.82;84.70
47166;BME280;32930;51.112;13.762;2023-08-07T12:55:54;98577.19;;;20.78;84.23
47166;BME280;32930;51.112;13.762;2023-08-07T12:58:22;98573.19;;;20.88;86.65
47166;BME280;32930;51.112;13.762;2023-08-07T13:06:00;98589.16;;;20.82;82.53
47166;BME280;32930;51.112;13.762;2023-08-07T13:11:11;98608.94;;;20.69;82.08
47166;BME280;32930;51.112;13.762;2023-08-07T13:13:39;98603.28;;;20.43;84.20
47166;BME280;32930;51.112;13.762;2023-08-07T13:21:29;98603.44;;;20.40;84.83
47166;BME280;32930;51.112;13.762;2023-08-07T13:23:55;98596.59;;;20.55;84.39
47166;BME280;32930;51.112;13.762;2023-08-07T13:26:20;98601.72;;;20.74;84.03
47166;BME280;32930;51.112;13.762;2023-08-07T13:28:46;98594.38;;;20.65;81.89
47166;BME280;32930;51.112;13.762;2023-08-07T13:31:11;98596.50;;;20.74;86.17
47166;BME280;32930;51.112;13.762;2023-08-07T13:33:36;98606.03;;;20.75;85.23
47166;BME280;32930;51.112;13.762;2023-08-07T13:38:36;98628.31;;;20.46;81.41
47166;BME280;32930;51.112;13.762;2023-08-07T13:41:02;98619.41;;;20.15;83.47
47166;BME280;32930;51.112;13.762;2023-08-07T13:43:27;98633.06;;;20.37;80.10
47166;BME280;32930;51.112;13.762;2023-08-07T13:45:52;98636.81;;;20.32;82.59
47166;BME280;32930;51.112;13.762;2023-08-07T13:48:17;98635.13;;;20.31;83.86
47166;BME280;32930;51.112;13.762;2023-08-07T13:50:43;98649.28;;;20.43;81.82
47166;BME280;32930;51.112;13.762;2023-08-07T13:53:08;98652.53;;;20.30;82.02
47166;BME280;32930;51.112;13.762;2023-08-07T13:55:34;98652.78;;;20.43;83.36
47166;BME280;32930;51.112;13.762;2023-08-07T14:03:06;98668.31;;;20.27;85.00
47166;BME280;32930;51.112;13.762;2023-08-07T14:05:31;98676.31;;;20.23;85.45
47166;BME280;32930;51.112;13.762;2023-08-07T14:07:56;98688.91;;;20.14;86.68
47166;BME280;32930;51.112;13.762;2023-08-07T14:12:55;98700.03;;;19.80;89.13
47166;BME280;32930;51.112;13.762;2023-08-07T14:15:20;98699.75;;;19.67;88.33
47166;BME280;32930;51.112;13.762;2023-08-07T14:40:48;98728.66;;;19.80;85.96
47166;BME280;32930;51.112;13.762;2023-08-07T14:43:13;98712.03;;;19.83;87.14
47166;BME280;32930;51.112;13.762;2023-08-07T14:45:39;98715.78;;;19.96;89.43
47166;BME280;32930;51.112;13.762;2023-08-07T14:50:36;98721.47;;;20.04;89.77
47166;BME280;32930;51.112;13.762;2023-08-07T14:53:02;98723.09;;;20.07;86.74
47166;BME280;32930;51.112;13.762;2023-08-07T15:05:41;98718.50;;;20.31;87.67
47166;BME280;32930;51.112;13.762;2023-08-07T15:08:07;98733.44;;;20.45;87.25
47166;BME280;32930;51.112;13.762;2023-08-07T15:10:32;98730.69;;;20.30;87.70
47166;BME280;32930;51.112;13.762;2023-08-07T15:20:44;98737.09;;;20.04;88.81
47166;BME280;32930;51.112;13.762;2023-08-07T15:23:11;98741.25;;;20.08;85.79
47166;BME280;32930;51.112;13.762;2023-08-07T15:51:27;98768.88;;;19.73;83.04
47166;BME280;32930;51.112;13.762;2023-08-07T15:53:52;98767.41;;;19.47;85.70
47166;BME280;32930;51.112;13.762;2023-08-07T15:58:53;98794.47;;;19.43;84.21
47166;BME280;32930;51.112;13.762;2023-08-07T16:01:18;98798.97;;;19.39;85.29
47166;BME280;32930;51.112;13.762;2023-08-07T16:03:43;98816.56;;;19.53;81.45
47166;BME280;32930;51.112;13.762;2023-08-07T16:06:10;98812.91;;;19.57;81.36
47166;BME280;32930;51.112;13.762;2023-08-07T16:08:35;98809.22;;;19.22;83.34
47166;BME280;32930;51.112;13.762;2023-08-07T16:11:00;98810.78;;;19.26;80.14
47166;BME280;32930;51.112;13.762;2023-08-07T16:21:07;98820.59;;;19.19;83.32
47166;BME280;32930;51.112;13.762;2023-08-07T16:23:37;98823.66;;;19.29;83.20
47166;BME280;32930;51.112;13.762;2023-08-07T16:48:57;98841.47;;;19.38;82.38
47166;BME280;32930;51.112;13.762;2023-08-07T16:53:54;98828.22;;;19.24;86.26
47166;BME280;32930;51.112;13.762;2023-08-07T16:56:20;98835.69;;;19.32;84.89
47166;BME280;32930;51.112;13.762;2023-08-07T16:58:45;98841.34;;;19.21;85.11
47166;BME280;32930;51.112;13.762;2023-08-07T17:05:29;98859.66;;;19.18;83.11
47166;BME280;32930;51.112;13.762;2023-08-07T17:07:56;98867.41;;;19.19;83.97
47166;BME280;32930;51.112;13.762;2023-08-07T17:10:21;98869.16;;;19.19;84.75
47166;BME280;32930;51.112;13.762;2023-08-07T17:12:46;98870.03;;;18.97;83.89
47166;BME280;32930;51.112;13.762;2023-08-07T17:15:11;98868.91;;;19.25;83.56
47166;BME280;32930;51.112;13.762;2023-08-07T17:17:36;98873.34;;;19.23;83.04
47166;BME280;32930;51.112;13.762;2023-08-07T17:20:03;98871.50;;;19.25;83.14
47166;BME280;32930;51.112;13.762;2023-08-07T17:22:28;98866.13;;;19.30;83.59
47166;BME280;32930;51.112;13.762;2023-08-07T17:29:59;98874.44;;;19.17;80.56
47166;BME280;32930;51.112;13.762;2023-08-07T17:32:25;98874.06;;;19.27;80.71
47166;BME280;32930;51.112;13.762;2023-08-07T17:42:30;98888.06;;;19.22;81.44
47166;BME280;32930;51.112;13.762;2023-08-07T17:44:55;98890.75;;;19.21;80.31
47166;BME280;32930;51.112;13.762;2023-08-07T17:47:21;98893.00;;;19.08;82.20
47166;BME280;32930;51.112;13.762;2023-08-07T17:49:46;98885.44;;;19.02;82.49
47166;BME280;32930;51.112;13.762;2023-08-07T17:52:11;98894.88;;;19.05;83.31
47166;BME280;32930;51.112;13.762;2023-08-07T18:07:22;98910.41;;;19.06;81.75
47166;BME280;32930;51.112;13.762;2023-08-07T18:20:04;98911.44;;;18.80;83.29
47166;BME280;32930;51.112;13.762;2023-08-07T18:32:43;98944.78;;;18.91;80.72
47166;BME280;32930;51.112;13.762;2023-08-07T18:35:08;98951.25;;;18.81;78.85
47166;BME280;32930;51.112;13.762;2023-08-07T18:37:34;98951.22;;;18.82;80.32
47166;BME280;32930;51.112;13.762;2023-08-07T18:39:59;98949.94;;;18.69;81.11
47166;BME280;32930;51.112;13.762;2023-08-07T18:42:24;98945.03;;;18.61;81.24
47166;BME280;32930;51.112;13.762;2023-08-07T18:44:49;98948.16;;;18.69;78.59
47166;BME280;32930;51.112;13.762;2023-08-07T18:47:15;98958.81;;;18.63;79.61
47166;BME280;32930;51.112;13.762;2023-08-07T18:49:40;98955.06;;;18.47;80.68
47166;BME280;32930;51.112;13.762;2023-08-07T18:52:05;98961.28;;;18.43;80.22
47166;BME280;32930;51.112;13.762;2023-08-07T18:54:31;98970.97;;;18.38;80.72
47166;BME280;32930;51.112;13.762;2023-08-07T18:56:56;98966.81;;;18.34;80.85
47166;BME280;32930;51.112;13.762;2023-08-07T18:59:21;98973.06;;;18.28;81.06
47166;BME280;32930;51.112;13.762;2023-08-07T19:01:47;98976.47;;;18.30;80.24
47166;BME280;32930;51.112;13.762;2023-08-07T19:04:12;98975.03;;;18.21;80.54
47166;BME280;32930;51.112;13.762;2023-08-07T19:06:37;98989.72;;;18.22;81.00
47166;BME280;32930;51.112;13.762;2023-08-07T19:09:04;98990.16;;;18.10;80.81
47166;BME280;32930;51.112;13.762;2023-08-07T19:11:29;98988.59;;;18.04;81.29
47166;BME280;32930;51.112;13.762;2023-08-07T19:16:26;98989.06;;;18.16;80.04
47166;BME280;32930;51.112;13.762;2023-08-07T19:18:53;98995.81;;;18.21;80.30
47166;BME280;32930;51.112;13.762;2023-08-07T19:21:18;98995.81;;;18.21;80.67
47166;BME280;32930;51.112;13.762;2023-08-07T19:23:43;98983.88;;;18.16;81.58
47166;BME280;32930;51.112;13.762;2023-08-07T19:26:09;98992.78;;;18.09;80.17
47166;BME280;32930;51.112;13.762;2023-08-07T19:28:34;98993.50;;;18.14;80.02
47166;BME280;32930;51.112;13.762;2023-08-07T19:30:59;98994.41;;;18.13;81.21
47166;BME280;32930;51.112;13.762;2023-08-07T19:33:25;99000.38;;;18.15;80.62
47166;BME280;32930;51.112;13.762;2023-08-07T19:35:50;99003.44;;;18.01;81.43
47166;BME280;32930;51.112;13.762;2023-08-07T19:38:15;99003.88;;;18.14;80.59
47166;BME280;32930;51.112;13.762;2023-08-07T19:40:40;99000.47;;;18.12;80.41
47166;BME280;32930;51.112;13.762;2023-08-07T19:43:06;99001.38;;;18.11;81.18
47166;BME280;32930;51.112;13.762;2023-08-07T19:45:31;99009.38;;;18.04;80.83
47166;BME280;32930;51.112;13.762;2023-08-07T19:47:57;99011.28;;;18.24;79.20
47166;BME280;32930;51.112;13.762;2023-08-07T19:50:23;99004.81;;;18.11;80.34
47166;BME280;32930;51.112;13.762;2023-08-07T19:52:49;99011.50;;;18.18;80.15
47166;BME280;32930;51.112;13.762;2023-08-07T19:55:14;99012.19;;;18.23;80.12
47166;BME280;32930;51.112;13.762;2023-08-07T19:57:41;99008.88;;;18.18;79.77
47166;BME280;32930;51.112;13.762;2023-08-07T20:00:10;99011.59;;;18.15;78.91
47166;BME280;32930;51.112;13.762;2023-08-07T20:02:35;99004.59;;;18.17;79.82
47166;BME280;32930;51.112;13.762;2023-08-07T20:05:01;99013.25;;;18.18;81.23
47166;BME280;32930;51.112;13.762;2023-08-07T20:07:26;99013.78;;;18.27;78.93
47166;BME280;32930;51.112;13.762;2023-08-07T20:09:51;99021.72;;;18.23;78.83
47166;BME280;32930;51.112;13.762;2023-08-07T20:12:17;99027.28;;;18.12;80.07
47166;BME280;32930;51.112;13.762;2023-08-07T20:14:42;99027.47;;;18.06;78.09
47166;BME280;32930;51.112;13.762;2023-08-07T20:17:07;99034.19;;;18.13;77.72
47166;BME280;32930;51.112;13.762;2023-08-07T20:19:33;99030.97;;;18.05;79.56
47166;BME280;32930;51.112;13.762;2023-08-07T20:21:59;99024.97;;;18.03;80.28
47166;BME280;32930;51.112;13.762;2023-08-07T20:24:24;99030.13;;;18.04;80.53
47166;BME280;32930;51.112;13.762;2023-08-07T20:26:51;99028.19;;;18.11;79.47
47166;BME280;32930;51.112;13.762;2023-08-07T20:29:20;99034.38;;;18.07;79.64
47166;BME280;32930;51.112;13.762;2023-08-07T20:31:45;99034.41;;;18.05;78.08
47166;BME280;32930;51.112;13.762;2023-08-07T20:34:11;99041.44;;;18.03;79.63
47166;BME280;32930;51.112;13.762;2023-08-07T20:39:18;99046.31;;;18.13;78.86
47166;BME280;32930;51.112;13.762;2023-08-07T20:41:44;99056.53;;;18.17;79.06
47166;BME280;32930;51.112;13.762;2023-08-07T20:44:09;99050.75;;;18.09;79.43
47166;BME280;32930;51.112;13.762;2023-08-07T20:46:34;99052.78;;;17.99;81.44
47166;BME280;32930;51.112;13.762;2023-08-07T20:49:00;99056.75;;;18.11;80.55
47166;BME280;32930;51.112;13.762;2023-08-07T20:51:25;99056.13;;;18.03;81.24
47166;BME280;32930;51.112;13.762;2023-08-07T20:53:50;99059.75;;;17.99;81.52
47166;BME280;32930;51.112;13.762;2023-08-07T20:58:55;99057.84;;;18.04;78.96
47166;BME280;32930;51.112;13.762;2023-08-07T21:01:20;99054.94;;;17.87;75.12
47166;BME280;32930;51.112;13.762;2023-08-07T21:03:45;99058.63;;;18.06;77.45
47166;BME280;32930;51.112;13.762;2023-08-07T21:06:13;99062.13;;;18.05;79.32
47166;BME280;32930;51.112;13.762;2023-08-07T21:08:38;99069.78;;;18.10;79.36
47166;BME280;32930;51.112;13.762;2023-08-07T21:11:03;99069.19;;;18.01;78.54
47166;BME280;32930;51.112;13.762;2023-08-07T21:13:29;99071.66;;;18.04;79.12
47166;BME280;32930;51.112;13.762;2023-08-07T21:18:26;99072.72;;;17.99;79.73
47166;BME280;32930;51.112;13.762;2023-08-07T21:20:51;99072.06;;;17.92;77.04
47166;BME280;32930;51.112;13.762;2023-08-07T21:23:17;99077.81;;;18.02;78.83
47166;BME280;32930;51.112;13.762;2023-08-07T21:25:42;99074.41;;;18.00;76.98
47166;BME280;32930;51.112;13.762;2023-08-07T21:28:07;99075.81;;;17.83;74.77
47166;BME280;32930;51.112;13.762;2023-08-07T21:30:34;99072.63;;;18.02;76.14
47166;BME280;32930;51.112;13.762;2023-08-07T21:32:59;99075.19;;;18.03;75.83
47166;BME280;32930;51.112;13.762;2023-08-07T21:35:25;99077.06;;;17.98;76.41
47166;BME280;32930;51.112;13.762;2023-08-07T21:37:51;99077.91;;;17.99;77.04
47166;BME280;32930;51.112;13.762;2023-08-07T21:40:16;99075.47;;;17.94;75.07
47166;BME280;32930;51.112;13.762;2023-08-07T21:42:41;99072.72;;;17.99;74.83
47166;BME280;32930;51.112;13.762;2023-08-07T21:45:07;99067.81;;;17.90;76.39
47166;BME280;32930;51.112;13.762;2023-08-07T21:47:32;99068.75;;;17.87;76.90
47166;BME280;32930;51.112;13.762;2023-08-07T21:49:57;99066.03;;;17.92;77.76
47166;BME280;32930;51.112;13.762;2023-08-07T21:52:23;99063.34;;;17.95;77.01
47166;BME280;32930;51.112;13.762;2023-08-07T21:54:48;99076.41;;;17.92;77.77
47166;BME280;32930;51.112;13.762;2023-08-07T21:57:13;99078.94;;;17.93;76.95
47166;BME280;32930;51.112;13.762;2023-08-07T21:59:39;99073.00;;;17.90;75.67
47166;BME280;32930;51.112;13.762;2023-08-07T22:02:04;99079.41;;;17.79;76.24
47166;BME280;32930;51.112;13.762;2023-08-07T22:04:29;99082.50;;;17.63;73.48
47166;BME280;32930;51.112;13.762;2023-08-07T22:06:55;99080.13;;;17.85;73.62
47166;BME280;32930;51.112;13.762;2023-08-07T22:09:23;99077.75;;;17.77;76.84
47166;BME280;32930;51.112;13.762;2023-08-07T22:11:49;99078.59;;;17.77;76.60
47166;BME280;32930;51.112;13.762;2023-08-07T22:14:16;99090.59;;;17.81;73.90
47166;BME280;32930;51.112;13.762;2023-08-07T22:16:41;99090.84;;;17.72;75.82
47166;BME280;32930;51.112;13.762;2023-08-07T22:19:06;99086.44;;;17.74;73.62
47166;BME280;32930;51.112;13.762;2023-08-07T22:23:58;99086.50;;;17.73;76.47
47166;BME280;32930;51.112;13.762;2023-08-07T22:26:24;99091.03;;;17.66;77.52
47166;BME280;32930;51.112;13.762;2023-08-07T22:28:50;99097.25;;;17.60;78.25
47166;BME280;32930;51.112;13.762;2023-08-07T22:31:15;99085.88;;;17.65;77.96
47166;BME280;32930;51.112;13.762;2023-08-07T22:33:41;99086.38;;;17.77;75.63
47166;BME280;32930;51.112;13.762;2023-08-07T22:36:06;99093.81;;;17.60;77.88
47166;BME280;32930;51.112;13.762;2023-08-07T22:38:36;99090.31;;;17.61;78.46
47166;BME280;32930;51.112;13.762;2023-08-07T22:41:01;99084.75;;;17.73;76.29
47166;BME280;32930;51.112;13.762;2023-08-07T22:43:26;99081.50;;;17.67;77.55
47166;BME280;32930;51.112;13.762;2023-08-07T22:45:52;99089.63;;;17.56;77.43
47166;BME280;32930;51.112;13.762;2023-08-07T22:48:17;99088.72;;;17.57;77.34
47166;BME280;32930;51.112;13.762;2023-08-07T22:50:42;99083.25;;;17.66;76.30
47166;BME280;32930;51.112;13.762;2023-08-07T22:53:07;99084.53;;;17.53;74.80
47166;BME280;32930;51.112;13.762;2023-08-07T22:55:33;99090.66;;;17.50;75.06
47166;BME280;32930;51.112;13.762;2023-08-07T22:57:58;99090.66;;;17.50;74.82
47166;BME280;32930;51.112;13.762;2023-08-07T23:00:24;99087.00;;;17.28;78.11
47166;BME280;32930;51.112;13.762;2023-08-07T23:02:49;99082.53;;;17.33;77.43
47166;BME280;32930;51.112;13.762;2023-08-07T23:05:14;99087.63;;;17.36;76.39
47166;BME280;32930;51.112;13.762;2023-08-07T23:07:41;99096.31;;;17.33;77.17
47166;BME280;32930;51.112;13.762;2023-08-07T23:10:09;99092.28;;;17.25;76.97
47166;BME280;32930;51.112;13.762;2023-08-07T23:12:35;99092.97;;;17.30;76.97
47166;BME280;32930;51.112;13.762;2023-08-07T23:15:00;99087.38;;;17.16;78.17
47166;BME280;32930;51.112;13.762;2023-08-07T23:17:25;99089.03;;;17.18;78.31
47166;BME280;32930;51.112;13.762;2023-08-07T23:19:50;99095.47;;;17.33;77.50
47166;BME280;32930;51.112;13.762;2023-08-07T23:22:16;99096.47;;;17.29;76.49
47166;BME280;32930;51.112;13.762;2023-08-07T23:24:41;99090.91;;;17.11;78.06
47166;BME280;32930;51.112;13.762;2023-08-07T23:27:06;99088.06;;;17.21;78.39
47166;BME280;32930;51.112;13.762;2023-08-07T23:29:32;99088.88;;;17.23;78.20
47166;BME280;32930;51.112;13.762;2023-08-07T23:34:29;99088.69;;;17.29;77.60
47166;BME280;32930;51.112;13.762;2023-08-07T23:36:55;99076.84;;;17.20;78.33
47166;BME280;32930;51.112;13.762;2023-08-07T23:39:20;99083.06;;;17.14;77.35
47166;BME280;32930;51.112;13.762;2023-08-07T23:44:23;99083.28;;;17.36;72.51
47166;BME280;32930;51.112;13.762;2023-08-07T23:46:49;99081.84;;;17.26;73.72
47166;BME280;32930;51.112;13.762;2023-08-07T23:49:14;99084.09;;;17.09;77.36
47166;BME280;32930;51.112;13.762;2023-08-07T23:51:40;99090.97;;;17.10;77.72
47166;BME280;32930;51.112;13.762;2023-08-07T23:54:05;99100.00;;;17.26;73.76
47166;BME280;32930;51.112;13.762;2023-08-07T23:56:30;99099.47;;;17.15;73.66
47166;BME280;32930;51.112;13.762;2023-08-07T23:58:56;99092.84;;;17.05;76.45
